Terminal Aerodrome Forecast
Issued by NWS Billings, MT

Home | Current Version | Previous Version | Graphics & Text | Print | Product List | Glossary On
Versions: 1 2 3 4 5 6 7 8 9 10 11 12 13 14 15 16 17 18 19 20 21 22 23 24 25 26
000
FTUS45 KBYZ 271725
TAFMLS
TAF
KMLS 271725Z 2718/2818 15005KT P6SM SCT250
     FM280800 27006KT P6SM BKN100
     FM281400 27011KT P6SM VCSH SCT015 OVC030
     FM281600 30015G25KT P6SM VCSH SCT012 BKN025=

USA.gov is the U.S. government's official web portal to all federal, state and local government web resources and services.